createdAt,value
2022-11-28T00:00:11.022Z,21.13
2022-11-28T00:02:44.887Z,21.13
2022-11-28T00:05:15.638Z,21.23
2022-11-28T00:07:45.837Z,18.70
2022-11-28T00:10:15.915Z,19.80
2022-11-28T00:12:45.991Z,20.70
2022-11-28T00:15:18.674Z,20.47
2022-11-28T00:17:48.835Z,19.53
2022-11-28T00:20:18.949Z,19.00
2022-11-28T00:22:48.902Z,18.67
2022-11-28T00:25:19.028Z,19.73
2022-11-28T00:27:49.236Z,20.20
2022-11-28T00:30:22.133Z,20.77
2022-11-28T00:32:52.032Z,19.00
2022-11-28T00:35:22.426Z,19.73
2022-11-28T00:37:52.437Z,18.27
2022-11-28T00:40:22.453Z,17.87
2022-11-28T00:42:52.455Z,18.40
2022-11-28T00:45:25.050Z,19.17
2022-11-28T00:47:54.987Z,18.00
2022-11-28T00:50:24.958Z,18.27
2022-11-28T00:52:54.972Z,17.00
2022-11-28T00:55:24.891Z,17.17
2022-11-28T00:57:55.361Z,18.47
2022-11-28T01:00:28.219Z,17.50
2022-11-28T01:02:58.251Z,17.87
2022-11-28T01:05:28.567Z,16.87
2022-11-28T01:07:58.670Z,18.87
2022-11-28T01:10:28.875Z,18.23
2022-11-28T01:12:58.796Z,17.90
2022-11-28T01:15:31.427Z,18.70
2022-11-28T01:18:02.715Z,19.17
2022-11-28T01:20:32.679Z,19.80
2022-11-28T01:23:02.691Z,20.00
2022-11-28T01:25:32.808Z,20.07
2022-11-28T01:28:02.898Z,18.63
2022-11-28T01:30:36.432Z,19.87
2022-11-28T01:33:06.484Z,19.37
2022-11-28T01:35:36.472Z,20.10
2022-11-28T01:38:06.545Z,20.43
2022-11-28T01:40:36.602Z,20.20
2022-11-28T01:43:06.640Z,20.13
2022-11-28T01:45:40.354Z,20.17
2022-11-28T01:48:14.271Z,20.57
2022-11-28T01:50:47.858Z,20.60
2022-11-28T01:53:18.969Z,20.80
2022-11-28T01:55:55.690Z,20.20
2022-11-28T01:58:26.864Z,20.43
2022-11-28T02:01:00.216Z,20.90
2022-11-28T02:03:36.285Z,21.60
2022-11-28T02:06:06.532Z,20.60
2022-11-28T02:08:38.047Z,21.37
2022-11-28T02:11:37.661Z,20.90
2022-11-28T02:14:18.404Z,20.57
2022-11-28T02:17:04.619Z,21.70
2022-11-28T02:20:05.103Z,20.53
2022-11-28T02:22:41.839Z,21.90
2022-11-28T02:25:43.047Z,21.47
2022-11-28T02:28:57.083Z,20.10
2022-11-28T02:31:45.840Z,22.13
2022-11-28T02:34:26.472Z,22.47
2022-11-28T02:37:06.197Z,22.27
2022-11-28T02:39:47.275Z,21.77
2022-11-28T02:42:22.870Z,22.00
2022-11-28T02:45:03.094Z,22.77
2022-11-28T02:47:36.321Z,22.93
2022-11-28T02:50:14.781Z,22.10
2022-11-28T02:52:49.524Z,23.97
2022-11-28T02:55:21.510Z,24.93
2022-11-28T02:57:53.857Z,24.53
2022-11-28T03:00:31.479Z,23.63
2022-11-28T03:03:13.611Z,25.07
2022-11-28T03:05:54.140Z,24.87
2022-11-28T03:08:38.854Z,26.13
2022-11-28T03:11:18.386Z,24.80
2022-11-28T03:13:56.454Z,24.80
2022-11-28T03:16:31.861Z,26.73
2022-11-28T03:19:12.079Z,26.33
2022-11-28T03:21:50.389Z,24.33
2022-11-28T03:24:25.749Z,25.83
2022-11-28T03:27:00.341Z,25.10
2022-11-28T03:29:37.321Z,25.50
2022-11-28T03:32:11.407Z,24.30
2022-11-28T03:34:45.012Z,23.90
2022-11-28T03:37:23.827Z,24.03
2022-11-28T03:40:02.085Z,23.13
2022-11-28T03:42:35.317Z,23.67
2022-11-28T03:45:10.962Z,23.27
2022-11-28T03:47:46.766Z,22.60
2022-11-28T03:50:21.172Z,22.77
2022-11-28T03:52:59.806Z,22.97
2022-11-28T03:55:36.639Z,21.00
2022-11-28T03:58:12.898Z,23.00
2022-11-28T04:00:52.591Z,21.83
2022-11-28T04:03:29.798Z,21.67
2022-11-28T04:06:05.399Z,22.13
2022-11-28T04:08:45.118Z,23.00
2022-11-28T04:11:18.492Z,22.10
2022-11-28T04:13:54.784Z,22.00
2022-11-28T04:16:32.955Z,22.00
2022-11-28T04:19:06.259Z,22.73
2022-11-28T04:21:44.199Z,22.53
2022-11-28T04:24:23.628Z,21.87
2022-11-28T04:27:00.786Z,22.60
2022-11-28T04:29:34.436Z,21.63
2022-11-28T04:32:06.704Z,22.90
2022-11-28T04:34:39.045Z,22.20
2022-11-28T04:37:10.593Z,22.47
2022-11-28T04:39:46.141Z,22.50
2022-11-28T04:42:18.876Z,22.40
2022-11-28T04:44:54.264Z,21.07
2022-11-28T04:47:25.124Z,20.73
2022-11-28T04:49:56.229Z,21.03
2022-11-28T04:52:35.438Z,20.37
2022-11-28T04:55:13.058Z,20.30
2022-11-28T04:57:46.101Z,23.17
2022-11-28T05:00:18.931Z,20.87
2022-11-28T05:02:52.574Z,22.87
2022-11-28T05:05:24.537Z,21.87
2022-11-28T05:07:55.142Z,21.50
2022-11-28T05:10:27.923Z,23.63
2022-11-28T05:12:57.917Z,22.73
2022-11-28T05:15:27.929Z,23.57
2022-11-28T05:17:57.843Z,23.00
2022-11-28T05:20:28.189Z,23.70
2022-11-28T05:22:58.305Z,23.30
2022-11-28T05:25:31.057Z,23.63
2022-11-28T05:28:01.627Z,22.30
2022-11-28T05:30:31.565Z,23.70
2022-11-28T05:33:02.210Z,24.03
2022-11-28T05:35:32.197Z,23.50
2022-11-28T05:38:02.139Z,23.40
2022-11-28T05:40:34.779Z,23.73
2022-11-28T05:43:04.724Z,24.03
2022-11-28T05:45:34.754Z,23.80
2022-11-28T05:48:04.760Z,23.37
2022-11-28T05:50:39.654Z,23.67
2022-11-28T05:53:10.098Z,24.07
2022-11-28T05:55:44.502Z,24.40
2022-11-28T05:58:14.635Z,24.13
2022-11-28T06:00:44.540Z,25.23
2022-11-28T06:03:14.478Z,26.07
2022-11-28T06:05:45.601Z,25.33
2022-11-28T06:08:16.087Z,25.87
2022-11-28T06:10:48.861Z,25.27
2022-11-28T06:13:19.052Z,26.30
2022-11-28T06:15:49.141Z,26.07
2022-11-28T06:18:19.137Z,25.70
2022-11-28T06:20:49.256Z,24.53
2022-11-28T06:23:19.172Z,26.93
2022-11-28T06:25:51.753Z,24.53
2022-11-28T06:28:21.701Z,26.70
2022-11-28T06:30:52.217Z,25.83
2022-11-28T06:33:22.518Z,25.67
2022-11-28T06:35:55.839Z,25.30
2022-11-28T06:38:25.832Z,25.40
2022-11-28T06:41:03.368Z,26.10
2022-11-28T06:43:33.638Z,26.00
2022-11-28T06:46:03.989Z,25.23
2022-11-28T06:48:34.150Z,25.50
2022-11-28T06:51:09.409Z,26.27
2022-11-28T06:53:39.569Z,24.67
2022-11-28T06:56:14.341Z,26.53
2022-11-28T06:58:46.889Z,24.93
2022-11-28T07:01:19.589Z,25.37
2022-11-28T07:03:50.568Z,25.33
2022-11-28T07:06:22.166Z,25.53
2022-11-28T07:08:52.208Z,25.03
2022-11-28T07:11:26.577Z,23.93
2022-11-28T07:13:57.735Z,25.37
2022-11-28T07:16:30.244Z,24.80
2022-11-28T07:19:01.280Z,26.40
2022-11-28T07:21:32.334Z,27.43
2022-11-28T07:24:03.257Z,27.13
2022-11-28T07:26:38.139Z,25.73
2022-11-28T07:29:10.140Z,26.70
2022-11-28T07:31:40.175Z,27.30
2022-11-28T07:34:10.308Z,27.57
2022-11-28T07:36:40.682Z,26.60
2022-11-28T07:39:19.281Z,26.93
2022-11-28T07:41:51.819Z,26.20
2022-11-28T07:44:22.075Z,26.73
2022-11-28T07:46:52.126Z,26.93
2022-11-28T07:49:22.129Z,27.17
2022-11-28T07:51:52.137Z,27.83
2022-11-28T07:54:24.389Z,28.67
2022-11-28T07:57:12.302Z,29.50
2022-11-28T07:59:43.878Z,29.37
2022-11-28T08:02:14.868Z,28.37
2022-11-28T08:04:49.580Z,29.33
2022-11-28T08:07:21.964Z,27.80
2022-11-28T08:09:51.963Z,28.30
2022-11-28T08:12:24.602Z,31.03
2022-11-28T08:14:54.506Z,30.77
2022-11-28T08:17:24.695Z,26.87
2022-11-28T08:19:54.894Z,27.27
2022-11-28T08:22:24.794Z,28.40
2022-11-28T08:24:54.765Z,28.70
2022-11-28T08:27:27.342Z,27.93
2022-11-28T08:29:57.282Z,26.60
2022-11-28T08:32:27.226Z,27.33
2022-11-28T08:34:57.249Z,27.60
2022-11-28T08:37:27.216Z,26.37
2022-11-28T08:39:57.172Z,27.17
2022-11-28T08:42:31.066Z,25.73
2022-11-28T08:45:01.046Z,27.53
2022-11-28T08:47:31.124Z,25.73
2022-11-28T08:50:01.138Z,25.67
2022-11-28T08:52:31.078Z,25.70
2022-11-28T08:55:01.069Z,25.53
2022-11-28T08:57:33.581Z,26.63
2022-11-28T09:00:04.536Z,26.10
2022-11-28T09:02:34.476Z,25.60
2022-11-28T09:05:04.791Z,24.53
2022-11-28T09:07:34.798Z,26.47
2022-11-28T09:10:05.661Z,25.60
2022-11-28T09:12:38.278Z,25.30
2022-11-28T09:15:09.759Z,25.77
2022-11-28T09:17:39.871Z,25.30
2022-11-28T09:20:11.193Z,25.97
2022-11-28T09:22:42.631Z,24.03
2022-11-28T09:25:13.222Z,24.30
2022-11-28T09:27:46.286Z,24.50
2022-11-28T09:30:17.123Z,24.63
2022-11-28T09:32:50.973Z,24.10
2022-11-28T09:35:21.572Z,25.77
2022-11-28T09:37:51.599Z,24.33
2022-11-28T09:40:28.355Z,24.63
2022-11-28T09:43:04.065Z,24.27
2022-11-28T09:45:34.457Z,25.03
2022-11-28T09:48:13.458Z,24.57
2022-11-28T09:50:45.566Z,25.00
2022-11-28T09:53:24.135Z,23.43
2022-11-28T09:55:57.432Z,23.03
2022-11-28T09:58:36.693Z,23.93
2022-11-28T10:01:18.474Z,23.67
2022-11-28T10:03:56.935Z,23.00
2022-11-28T10:06:31.402Z,23.40
2022-11-28T10:09:19.254Z,25.03
2022-11-28T10:11:58.044Z,25.10
2022-11-28T10:14:49.924Z,24.77
2022-11-28T10:17:27.665Z,25.43
2022-11-28T10:20:02.656Z,25.70
2022-11-28T10:22:40.411Z,24.97
2022-11-28T10:25:19.349Z,25.53
2022-11-28T10:27:50.809Z,24.77
2022-11-28T10:30:28.926Z,23.87
2022-11-28T10:33:04.553Z,24.33
2022-11-28T10:35:42.391Z,24.40
2022-11-28T10:38:15.594Z,23.80
2022-11-28T10:40:51.696Z,24.80
2022-11-28T10:43:35.290Z,23.87
2022-11-28T10:46:23.151Z,22.67
2022-11-28T10:48:58.949Z,22.23
2022-11-28T10:51:37.664Z,22.53
2022-11-28T10:54:22.489Z,23.97
2022-11-28T10:57:05.626Z,22.70
2022-11-28T10:59:50.819Z,22.37
2022-11-28T11:02:30.106Z,21.47
2022-11-28T11:05:00.347Z,21.80
2022-11-28T11:07:32.780Z,21.70
2022-11-28T11:10:15.888Z,23.63
2022-11-28T11:12:46.995Z,21.97
2022-11-28T11:15:26.984Z,22.87
2022-11-28T11:17:59.801Z,20.97
2022-11-28T11:20:34.327Z,22.67
2022-11-28T11:23:14.574Z,21.47
2022-11-28T11:25:52.525Z,22.60
2022-11-28T11:28:37.384Z,21.63
2022-11-28T11:31:17.368Z,20.83
2022-11-28T11:33:51.560Z,22.00
2022-11-28T11:36:29.944Z,22.43
2022-11-28T11:39:18.084Z,20.83
2022-11-28T11:41:52.109Z,20.70
2022-11-28T11:44:37.040Z,21.53
2022-11-28T11:47:09.721Z,21.20
2022-11-28T11:49:45.046Z,21.37
2022-11-28T11:52:23.797Z,22.47
2022-11-28T11:55:00.255Z,21.37
2022-11-28T11:57:35.248Z,22.03
2022-11-28T12:00:09.951Z,23.53
2022-11-28T12:02:47.483Z,24.23
2022-11-28T12:05:22.867Z,23.97
2022-11-28T12:08:00.096Z,25.70
2022-11-28T12:10:33.015Z,26.23
2022-11-28T12:13:04.731Z,26.47
2022-11-28T12:15:42.928Z,25.57
2022-11-28T12:18:23.573Z,26.20
2022-11-28T12:21:09.317Z,26.53
2022-11-28T12:23:51.031Z,25.27
2022-11-28T12:26:26.644Z,27.93
2022-11-28T12:29:09.464Z,27.87
2022-11-28T12:31:52.333Z,27.87
2022-11-28T12:34:33.848Z,27.43
2022-11-28T12:37:15.213Z,28.90
2022-11-28T12:39:57.810Z,27.40
2022-11-28T12:42:47.657Z,26.87
2022-11-28T12:45:39.621Z,27.13
2022-11-28T12:48:35.424Z,27.77
2022-11-28T12:51:15.652Z,28.03
2022-11-28T12:54:02.254Z,28.73
2022-11-28T12:56:48.663Z,28.37
2022-11-28T12:59:28.615Z,28.47
2022-11-28T13:02:09.744Z,27.90
2022-11-28T13:05:10.480Z,27.90
2022-11-28T13:07:50.251Z,29.37
2022-11-28T13:10:29.615Z,28.47
2022-11-28T13:13:03.969Z,27.63
2022-11-28T13:15:51.359Z,27.53
2022-11-28T13:18:35.447Z,29.43
2022-11-28T13:21:30.717Z,29.73
2022-11-28T13:24:07.490Z,31.53
2022-11-28T13:26:49.188Z,30.73
2022-11-28T13:29:29.222Z,31.00
2022-11-28T13:32:10.447Z,33.77
2022-11-28T13:34:41.373Z,32.57
2022-11-28T13:40:21.279Z,31.67
2022-11-28T13:43:06.542Z,33.40
2022-11-28T13:45:39.743Z,31.60
2022-11-28T13:49:12.439Z,33.43
2022-11-28T13:51:32.750Z,31.23
2022-11-28T13:54:46.052Z,32.53
2022-11-28T13:57:41.076Z,32.10
2022-11-28T14:00:27.796Z,31.00
2022-11-28T14:03:00.334Z,31.93
2022-11-28T14:05:34.579Z,32.73
2022-11-28T14:08:05.984Z,31.90
2022-11-28T14:10:51.667Z,32.87
2022-11-28T14:13:48.299Z,32.93
2022-11-28T14:16:35.583Z,31.03
2022-11-28T14:19:21.021Z,33.97
2022-11-28T14:22:04.673Z,34.43
2022-11-28T14:24:54.288Z,33.53
2022-11-28T14:27:26.697Z,34.90
2022-11-28T14:29:59.549Z,34.00
2022-11-28T14:32:37.191Z,32.97
2022-11-28T14:35:09.661Z,34.17
2022-11-28T14:37:54.546Z,33.77
2022-11-28T14:41:06.484Z,32.67
2022-11-28T14:43:39.696Z,32.67
2022-11-28T14:46:34.877Z,32.27
2022-11-28T14:49:26.512Z,32.83
2022-11-28T14:52:39.459Z,34.47
2022-11-28T14:55:23.758Z,31.97
2022-11-28T14:57:59.539Z,33.60
2022-11-28T15:00:31.727Z,31.60
2022-11-28T15:03:17.416Z,31.70
2022-11-28T15:05:53.410Z,32.93
2022-11-28T15:08:39.686Z,32.83
2022-11-28T15:11:36.122Z,32.63
2022-11-28T15:14:23.545Z,32.10
2022-11-28T15:16:58.211Z,32.77
2022-11-28T15:19:33.764Z,32.07
2022-11-28T15:22:06.485Z,31.23
2022-11-28T15:24:38.675Z,31.60
2022-11-28T15:27:30.595Z,32.10
2022-11-28T15:30:04.491Z,30.97
2022-11-28T15:32:35.437Z,31.70
2022-11-28T15:35:12.472Z,33.07
2022-11-28T15:37:51.229Z,30.57
2022-11-28T15:40:25.252Z,32.43
2022-11-28T15:42:55.941Z,31.63
2022-11-28T15:45:29.529Z,32.20
2022-11-28T15:48:00.115Z,30.73
2022-11-28T15:50:34.019Z,31.27
2022-11-28T15:53:17.497Z,30.40
2022-11-28T15:55:48.034Z,30.83
2022-11-28T15:58:23.761Z,31.57
2022-11-28T16:00:59.276Z,32.17
2022-11-28T16:03:34.889Z,33.77
2022-11-28T16:06:06.675Z,30.87
2022-11-28T16:08:42.948Z,32.40
2022-11-28T16:11:13.615Z,32.40
2022-11-28T16:13:43.782Z,32.57
2022-11-28T16:16:17.712Z,32.40
2022-11-28T16:18:49.375Z,32.63
2022-11-28T16:21:19.441Z,31.13
2022-11-28T16:23:52.226Z,31.47
2022-11-28T16:26:26.284Z,32.93
2022-11-28T16:29:03.630Z,31.83
2022-11-28T16:31:33.997Z,32.83
2022-11-28T16:34:05.976Z,33.17
2022-11-28T16:36:39.439Z,33.67
2022-11-28T16:39:17.790Z,33.80
2022-11-28T16:41:54.835Z,33.77
2022-11-28T16:44:28.194Z,34.33
2022-11-28T16:47:00.166Z,36.63
2022-11-28T16:49:37.422Z,34.60
2022-11-28T16:52:46.526Z,38.23
2022-11-28T16:55:44.386Z,34.80
2022-11-28T16:58:23.612Z,36.03
2022-11-28T17:01:04.963Z,34.87
2022-11-28T17:03:49.895Z,36.40
2022-11-28T17:06:29.098Z,36.87
2022-11-28T17:08:59.471Z,37.77
2022-11-28T17:11:36.376Z,36.93
2022-11-28T17:14:13.109Z,36.40
2022-11-28T17:16:45.368Z,36.70
2022-11-28T17:19:15.460Z,36.70
2022-11-28T17:21:48.024Z,39.47
2022-11-28T17:24:20.471Z,38.60
2022-11-28T17:26:54.303Z,36.47
2022-11-28T17:29:25.384Z,38.00
2022-11-28T17:31:57.745Z,36.80
2022-11-28T17:34:30.878Z,37.07
2022-11-28T17:37:01.155Z,38.63
2022-11-28T17:39:31.640Z,37.63
2022-11-28T17:42:04.513Z,37.67
2022-11-28T17:44:37.642Z,38.77
2022-11-28T17:47:08.416Z,39.13
2022-11-28T17:49:43.129Z,38.97
2022-11-28T17:52:16.059Z,39.03
2022-11-28T17:54:46.005Z,39.73
2022-11-28T17:57:18.648Z,39.20
2022-11-28T17:59:48.947Z,38.20
2022-11-28T18:02:18.985Z,40.03
2022-11-28T18:04:49.134Z,39.93
2022-11-28T18:07:19.236Z,39.53
2022-11-28T18:09:49.307Z,39.80
2022-11-28T18:12:21.868Z,40.90
2022-11-28T18:14:51.867Z,38.00
2022-11-28T18:17:21.956Z,41.73
2022-11-28T18:19:57.128Z,40.03
2022-11-28T18:22:27.685Z,39.10
2022-11-28T18:24:57.702Z,40.17
2022-11-28T18:27:30.861Z,39.80
2022-11-28T18:30:01.096Z,39.63
2022-11-28T18:32:31.280Z,39.07
2022-11-28T18:35:01.536Z,40.90
2022-11-28T18:37:31.611Z,40.93
2022-11-28T18:40:05.056Z,41.27
2022-11-28T18:42:41.367Z,40.77
2022-11-28T18:45:13.493Z,39.70
2022-11-28T18:47:43.905Z,40.63
2022-11-28T18:50:14.763Z,39.43
2022-11-28T18:52:44.854Z,41.63
2022-11-28T18:55:15.755Z,41.27
2022-11-28T18:57:48.490Z,41.80
2022-11-28T19:00:19.760Z,42.50
2022-11-28T19:02:53.225Z,41.90
2022-11-28T19:05:23.227Z,41.53
2022-11-28T19:07:53.468Z,41.60
2022-11-28T19:10:23.752Z,41.90
